sensor_id;sensor_type;location;lat;lon;timestamp;temperature;humidity
50570;DHT22;36525;49.398;7.614;2023-01-06T00:01:16;10.30;99.90
50570;DHT22;36525;49.398;7.614;2023-01-06T00:03:49;10.30;99.90
50570;DHT22;36525;49.398;7.614;2023-01-06T00:06:18;10.30;99.90
50570;DHT22;36525;49.398;7.614;2023-01-06T00:08:46;10.30;99.90
50570;DHT22;36525;49.398;7.614;2023-01-06T00:11:14;10.30;99.90
50570;DHT22;36525;49.398;7.614;2023-01-06T00:13:41;10.40;99.90
50570;DHT22;36525;49.398;7.614;2023-01-06T00:16:14;10.40;99.90
50570;DHT22;36525;49.398;7.614;2023-01-06T00:18:43;10.40;99.90
50570;DHT22;36525;49.398;7.614;2023-01-06T00:21:11;10.40;99.90
50570;DHT22;36525;49.398;7.614;2023-01-06T00:23:40;10.40;99.90
50570;DHT22;36525;49.398;7.614;2023-01-06T00:26:08;10.30;99.90
50570;DHT22;36525;49.398;7.614;2023-01-06T00:28:36;10.30;99.90
50570;DHT22;36525;49.398;7.614;2023-01-06T00:31:12;10.30;99.90
50570;DHT22;36525;49.398;7.614;2023-01-06T00:33:41;10.30;99.90
50570;DHT22;36525;49.398;7.614;2023-01-06T00:36:10;10.30;99.90
50570;DHT22;36525;49.398;7.614;2023-01-06T00:38:39;10.40;99.90
50570;DHT22;36525;49.398;7.614;2023-01-06T00:41:11;10.40;99.90
50570;DHT22;36525;49.398;7.614;2023-01-06T00:43:58;10.40;99.90
50570;DHT22;36525;49.398;7.614;2023-01-06T00:46:30;10.30;99.90
50570;DHT22;36525;49.398;7.614;2023-01-06T00:49:01;10.30;99.90
50570;DHT22;36525;49.398;7.614;2023-01-06T00:51:33;10.30;99.90
50570;DHT22;36525;49.398;7.614;2023-01-06T00:54:02;10.20;99.90
50570;DHT22;36525;49.398;7.614;2023-01-06T00:56:29;10.10;99.90
50570;DHT22;36525;49.398;7.614;2023-01-06T00:58:56;10.10;99.90
50570;DHT22;36525;49.398;7.614;2023-01-06T01:01:23;10.10;99.90
50570;DHT22;36525;49.398;7.614;2023-01-06T01:03:50;10.10;99.90
50570;DHT22;36525;49.398;7.614;2023-01-06T01:06:17;10.10;99.90
50570;DHT22;36525;49.398;7.614;2023-01-06T01:08:44;10.00;99.90
50570;DHT22;36525;49.398;7.614;2023-01-06T01:11:12;10.00;99.90
50570;DHT22;36525;49.398;7.614;2023-01-06T01:13:59;10.00;99.90
50570;DHT22;36525;49.398;7.614;2023-01-06T01:16:26;10.00;99.90
50570;DHT22;36525;49.398;7.614;2023-01-06T01:18:53;9.90;99.90
50570;DHT22;36525;49.398;7.614;2023-01-06T01:21:20;9.80;99.90
50570;DHT22;36525;49.398;7.614;2023-01-06T01:23:47;9.80;99.90
50570;DHT22;36525;49.398;7.614;2023-01-06T01:26:14;9.80;99.90
50570;DHT22;36525;49.398;7.614;2023-01-06T01:28:41;9.80;99.90
50570;DHT22;36525;49.398;7.614;2023-01-06T01:31:09;9.70;99.90
50570;DHT22;36525;49.398;7.614;2023-01-06T01:33:36;9.70;99.90
50570;DHT22;36525;49.398;7.614;2023-01-06T01:36:12;9.60;99.90
50570;DHT22;36525;49.398;7.614;2023-01-06T01:38:41;9.70;99.90
50570;DHT22;36525;49.398;7.614;2023-01-06T01:41:13;9.70;99.90
50570;DHT22;36525;49.398;7.614;2023-01-06T01:46:12;9.70;99.90
50570;DHT22;36525;49.398;7.614;2023-01-06T01:48:42;9.80;99.90
50570;DHT22;36525;49.398;7.614;2023-01-06T01:51:14;9.80;99.90
50570;DHT22;36525;49.398;7.614;2023-01-06T01:53:46;9.80;99.90
50570;DHT22;36525;49.398;7.614;2023-01-06T01:56:18;9.80;99.90
50570;DHT22;36525;49.398;7.614;2023-01-06T01:59:08;9.70;99.90
50570;DHT22;36525;49.398;7.614;2023-01-06T02:01:37;9.80;99.90
50570;DHT22;36525;49.398;7.614;2023-01-06T02:04:05;9.80;99.90
50570;DHT22;36525;49.398;7.614;2023-01-06T02:06:32;9.80;99.90
50570;DHT22;36525;49.398;7.614;2023-01-06T02:11:46;9.70;99.90
50570;DHT22;36525;49.398;7.614;2023-01-06T02:14:19;9.70;99.90
50570;DHT22;36525;49.398;7.614;2023-01-06T02:37:40;9.40;99.90
50570;DHT22;36525;49.398;7.614;2023-01-06T02:43:25;9.40;99.90
50570;DHT22;36525;49.398;7.614;2023-01-06T02:49:27;9.30;99.90
50570;DHT22;36525;49.398;7.614;2023-01-06T02:52:53;9.30;99.90
50570;DHT22;36525;49.398;7.614;2023-01-06T02:55:53;9.30;99.90
50570;DHT22;36525;49.398;7.614;2023-01-06T02:58:34;9.20;99.90
50570;DHT22;36525;49.398;7.614;2023-01-06T03:01:08;9.10;99.90
50570;DHT22;36525;49.398;7.614;2023-01-06T03:03:40;9.10;99.90
50570;DHT22;36525;49.398;7.614;2023-01-06T03:06:12;9.10;99.90
50570;DHT22;36525;49.398;7.614;2023-01-06T03:08:43;9.10;99.90
50570;DHT22;36525;49.398;7.614;2023-01-06T03:11:11;9.10;99.90
50570;DHT22;36525;49.398;7.614;2023-01-06T03:13:44;9.10;99.90
50570;DHT22;36525;49.398;7.614;2023-01-06T03:16:13;9.10;99.90
50570;DHT22;36525;49.398;7.614;2023-01-06T03:18:43;9.10;99.90
50570;DHT22;36525;49.398;7.614;2023-01-06T03:21:15;9.10;99.90
50570;DHT22;36525;49.398;7.614;2023-01-06T03:23:45;9.10;99.90
50570;DHT22;36525;49.398;7.614;2023-01-06T03:26:13;9.10;99.90
50570;DHT22;36525;49.398;7.614;2023-01-06T03:28:40;9.10;99.90
50570;DHT22;36525;49.398;7.614;2023-01-06T03:33:55;9.10;99.90
50570;DHT22;36525;49.398;7.614;2023-01-06T03:42:33;9.10;99.90
50570;DHT22;36525;49.398;7.614;2023-01-06T03:57:27;9.20;99.90
50570;DHT22;36525;49.398;7.614;2023-01-06T04:00:11;9.20;99.90
50570;DHT22;36525;49.398;7.614;2023-01-06T04:02:42;9.20;99.90
50570;DHT22;36525;49.398;7.614;2023-01-06T04:05:15;9.20;99.90
50570;DHT22;36525;49.398;7.614;2023-01-06T04:07:44;9.10;99.90
50570;DHT22;36525;49.398;7.614;2023-01-06T04:10:15;9.10;99.90
50570;DHT22;36525;49.398;7.614;2023-01-06T04:12:43;9.20;99.90
50570;DHT22;36525;49.398;7.614;2023-01-06T04:15:15;9.10;99.90
50570;DHT22;36525;49.398;7.614;2023-01-06T04:17:44;9.10;99.90
50570;DHT22;36525;49.398;7.614;2023-01-06T04:20:16;9.10;99.90
50570;DHT22;36525;49.398;7.614;2023-01-06T04:22:44;9.10;99.90
50570;DHT22;36525;49.398;7.614;2023-01-06T04:25:12;9.10;99.90
50570;DHT22;36525;49.398;7.614;2023-01-06T04:27:39;9.10;99.90
50570;DHT22;36525;49.398;7.614;2023-01-06T04:30:07;9.10;99.90
50570;DHT22;36525;49.398;7.614;2023-01-06T04:32:34;9.10;99.90
50570;DHT22;36525;49.398;7.614;2023-01-06T04:35:01;9.00;99.90
50570;DHT22;36525;49.398;7.614;2023-01-06T04:37:28;9.10;99.90
50570;DHT22;36525;49.398;7.614;2023-01-06T04:39:55;9.00;99.90
50570;DHT22;36525;49.398;7.614;2023-01-06T04:42:22;9.00;99.90
50570;DHT22;36525;49.398;7.614;2023-01-06T04:44:49;9.00;99.90
50570;DHT22;36525;49.398;7.614;2023-01-06T04:47:15;9.00;99.90
50570;DHT22;36525;49.398;7.614;2023-01-06T04:49:42;9.00;99.90
50570;DHT22;36525;49.398;7.614;2023-01-06T04:52:09;9.00;99.90
50570;DHT22;36525;49.398;7.614;2023-01-06T04:54:36;9.00;99.90
50570;DHT22;36525;49.398;7.614;2023-01-06T04:57:04;9.00;99.90
50570;DHT22;36525;49.398;7.614;2023-01-06T04:59:31;9.00;99.90
50570;DHT22;36525;49.398;7.614;2023-01-06T05:01:58;9.00;99.90
50570;DHT22;36525;49.398;7.614;2023-01-06T05:04:25;9.00;99.90
50570;DHT22;36525;49.398;7.614;2023-01-06T05:06:55;9.00;99.90
50570;DHT22;36525;49.398;7.614;2023-01-06T05:09:22;9.00;99.90
50570;DHT22;36525;49.398;7.614;2023-01-06T05:11:50;9.00;99.90
50570;DHT22;36525;49.398;7.614;2023-01-06T05:14:17;9.00;99.90
50570;DHT22;36525;49.398;7.614;2023-01-06T05:16:47;9.00;99.90
50570;DHT22;36525;49.398;7.614;2023-01-06T05:19:14;8.90;99.90
50570;DHT22;36525;49.398;7.614;2023-01-06T05:21:41;8.90;99.90
50570;DHT22;36525;49.398;7.614;2023-01-06T05:24:08;8.90;99.90
50570;DHT22;36525;49.398;7.614;2023-01-06T05:26:35;8.90;99.90
50570;DHT22;36525;49.398;7.614;2023-01-06T05:29:03;8.90;99.90
50570;DHT22;36525;49.398;7.614;2023-01-06T05:31:30;8.90;99.90
50570;DHT22;36525;49.398;7.614;2023-01-06T05:33:57;8.90;99.90
50570;DHT22;36525;49.398;7.614;2023-01-06T05:36:24;8.90;99.90
50570;DHT22;36525;49.398;7.614;2023-01-06T05:38:52;8.90;99.90
50570;DHT22;36525;49.398;7.614;2023-01-06T05:41:19;8.80;99.90
50570;DHT22;36525;49.398;7.614;2023-01-06T05:43:47;8.70;99.90
50570;DHT22;36525;49.398;7.614;2023-01-06T05:46:14;8.60;99.90
50570;DHT22;36525;49.398;7.614;2023-01-06T05:48:41;8.60;99.90
50570;DHT22;36525;49.398;7.614;2023-01-06T05:51:11;8.50;99.90
50570;DHT22;36525;49.398;7.614;2023-01-06T05:53:41;8.60;99.90
50570;DHT22;36525;49.398;7.614;2023-01-06T05:56:12;8.60;99.90
50570;DHT22;36525;49.398;7.614;2023-01-06T05:58:44;8.50;99.90
50570;DHT22;36525;49.398;7.614;2023-01-06T06:01:16;8.50;99.90
50570;DHT22;36525;49.398;7.614;2023-01-06T06:03:45;8.40;99.90
50570;DHT22;36525;49.398;7.614;2023-01-06T06:06:12;8.40;99.90
50570;DHT22;36525;49.398;7.614;2023-01-06T06:08:39;8.40;99.90
50570;DHT22;36525;49.398;7.614;2023-01-06T06:11:09;8.40;99.90
50570;DHT22;36525;49.398;7.614;2023-01-06T06:13:38;8.30;99.90
50570;DHT22;36525;49.398;7.614;2023-01-06T06:16:11;8.40;99.90
50570;DHT22;36525;49.398;7.614;2023-01-06T06:18:40;8.40;99.90
50570;DHT22;36525;49.398;7.614;2023-01-06T06:21:13;8.30;99.90
50570;DHT22;36525;49.398;7.614;2023-01-06T06:23:42;8.30;99.90
50570;DHT22;36525;49.398;7.614;2023-01-06T06:26:10;8.30;99.90
50570;DHT22;36525;49.398;7.614;2023-01-06T06:28:38;8.30;99.90
50570;DHT22;36525;49.398;7.614;2023-01-06T06:31:23;8.30;99.90
50570;DHT22;36525;49.398;7.614;2023-01-06T06:33:53;8.30;99.90
50570;DHT22;36525;49.398;7.614;2023-01-06T06:36:22;8.30;99.90
50570;DHT22;36525;49.398;7.614;2023-01-06T06:38:51;8.30;99.90
50570;DHT22;36525;49.398;7.614;2023-01-06T06:41:20;8.30;99.90
50570;DHT22;36525;49.398;7.614;2023-01-06T06:43:48;8.20;99.90
50570;DHT22;36525;49.398;7.614;2023-01-06T06:46:16;8.40;99.90
50570;DHT22;36525;49.398;7.614;2023-01-06T06:48:44;8.40;99.90
50570;DHT22;36525;49.398;7.614;2023-01-06T06:51:13;8.30;99.90
50570;DHT22;36525;49.398;7.614;2023-01-06T06:53:43;8.30;99.90
50570;DHT22;36525;49.398;7.614;2023-01-06T06:56:12;8.30;99.90
50570;DHT22;36525;49.398;7.614;2023-01-06T06:58:40;8.30;99.90
50570;DHT22;36525;49.398;7.614;2023-01-06T07:01:13;8.30;99.90
50570;DHT22;36525;49.398;7.614;2023-01-06T07:03:42;8.30;99.90
50570;DHT22;36525;49.398;7.614;2023-01-06T07:06:12;8.30;99.90
50570;DHT22;36525;49.398;7.614;2023-01-06T07:08:44;8.40;99.90
50570;DHT22;36525;49.398;7.614;2023-01-06T07:11:12;8.40;99.90
50570;DHT22;36525;49.398;7.614;2023-01-06T07:13:39;8.40;99.90
50570;DHT22;36525;49.398;7.614;2023-01-06T07:16:07;8.30;99.90
50570;DHT22;36525;49.398;7.614;2023-01-06T07:18:34;8.30;99.90
50570;DHT22;36525;49.398;7.614;2023-01-06T07:21:02;8.30;99.90
50570;DHT22;36525;49.398;7.614;2023-01-06T07:23:29;8.30;99.90
50570;DHT22;36525;49.398;7.614;2023-01-06T07:25:58;8.30;99.90
50570;DHT22;36525;49.398;7.614;2023-01-06T07:28:27;8.40;99.90
50570;DHT22;36525;49.398;7.614;2023-01-06T07:30:55;8.30;99.90
50570;DHT22;36525;49.398;7.614;2023-01-06T07:33:23;8.40;99.90
50570;DHT22;36525;49.398;7.614;2023-01-06T07:35:54;8.40;99.90
50570;DHT22;36525;49.398;7.614;2023-01-06T07:38:21;8.40;99.90
50570;DHT22;36525;49.398;7.614;2023-01-06T07:40:49;8.40;99.90
50570;DHT22;36525;49.398;7.614;2023-01-06T07:43:17;8.30;99.90
50570;DHT22;36525;49.398;7.614;2023-01-06T07:45:47;8.30;99.90
50570;DHT22;36525;49.398;7.614;2023-01-06T07:48:15;8.40;99.90
50570;DHT22;36525;49.398;7.614;2023-01-06T07:50:43;8.40;99.90
50570;DHT22;36525;49.398;7.614;2023-01-06T07:53:10;8.40;99.90
50570;DHT22;36525;49.398;7.614;2023-01-06T07:55:38;8.40;99.90
50570;DHT22;36525;49.398;7.614;2023-01-06T07:58:06;8.40;99.90
50570;DHT22;36525;49.398;7.614;2023-01-06T08:00:34;8.40;99.90
50570;DHT22;36525;49.398;7.614;2023-01-06T08:03:06;8.40;99.90
50570;DHT22;36525;49.398;7.614;2023-01-06T08:05:40;8.50;99.90
50570;DHT22;36525;49.398;7.614;2023-01-06T08:08:09;8.50;99.90
50570;DHT22;36525;49.398;7.614;2023-01-06T08:10:40;8.50;99.90
50570;DHT22;36525;49.398;7.614;2023-01-06T08:13:08;8.60;99.90
50570;DHT22;36525;49.398;7.614;2023-01-06T08:15:36;8.60;99.90
50570;DHT22;36525;49.398;7.614;2023-01-06T08:18:04;8.50;99.90
50570;DHT22;36525;49.398;7.614;2023-01-06T08:20:31;8.60;99.90
50570;DHT22;36525;49.398;7.614;2023-01-06T08:23:00;8.60;99.90
50570;DHT22;36525;49.398;7.614;2023-01-06T08:25:28;8.50;99.90
50570;DHT22;36525;49.398;7.614;2023-01-06T08:27:57;8.50;99.90
50570;DHT22;36525;49.398;7.614;2023-01-06T08:30:25;8.50;99.90
50570;DHT22;36525;49.398;7.614;2023-01-06T08:32:56;8.40;99.90
50570;DHT22;36525;49.398;7.614;2023-01-06T08:35:24;8.50;99.90
50570;DHT22;36525;49.398;7.614;2023-01-06T08:37:52;8.40;99.90
50570;DHT22;36525;49.398;7.614;2023-01-06T08:40:19;8.40;99.90
50570;DHT22;36525;49.398;7.614;2023-01-06T08:42:46;8.50;99.90
50570;DHT22;36525;49.398;7.614;2023-01-06T08:45:13;8.40;99.90
50570;DHT22;36525;49.398;7.614;2023-01-06T08:47:40;8.40;99.90
50570;DHT22;36525;49.398;7.614;2023-01-06T08:50:07;8.50;99.90
50570;DHT22;36525;49.398;7.614;2023-01-06T08:52:35;8.50;99.90
50570;DHT22;36525;49.398;7.614;2023-01-06T08:55:02;8.60;99.90
50570;DHT22;36525;49.398;7.614;2023-01-06T08:57:29;8.50;99.90
50570;DHT22;36525;49.398;7.614;2023-01-06T08:59:56;8.70;99.90
50570;DHT22;36525;49.398;7.614;2023-01-06T09:02:23;8.70;99.90
50570;DHT22;36525;49.398;7.614;2023-01-06T09:04:52;8.80;99.90
50570;DHT22;36525;49.398;7.614;2023-01-06T09:07:20;8.80;99.90
50570;DHT22;36525;49.398;7.614;2023-01-06T09:09:47;8.80;99.90
50570;DHT22;36525;49.398;7.614;2023-01-06T09:12:14;8.90;99.90
50570;DHT22;36525;49.398;7.614;2023-01-06T09:14:41;9.00;99.90
50570;DHT22;36525;49.398;7.614;2023-01-06T09:17:08;9.00;99.90
50570;DHT22;36525;49.398;7.614;2023-01-06T09:19:35;9.00;99.90
50570;DHT22;36525;49.398;7.614;2023-01-06T09:22:02;9.00;99.90
50570;DHT22;36525;49.398;7.614;2023-01-06T09:24:28;9.00;99.90
50570;DHT22;36525;49.398;7.614;2023-01-06T09:26:55;9.00;99.90
50570;DHT22;36525;49.398;7.614;2023-01-06T09:29:22;9.00;99.90
50570;DHT22;36525;49.398;7.614;2023-01-06T09:31:50;9.00;99.90
50570;DHT22;36525;49.398;7.614;2023-01-06T09:34:17;9.00;99.90
50570;DHT22;36525;49.398;7.614;2023-01-06T09:36:44;9.00;99.90
50570;DHT22;36525;49.398;7.614;2023-01-06T09:39:11;9.00;99.90
50570;DHT22;36525;49.398;7.614;2023-01-06T09:44:32;8.90;99.90
50570;DHT22;36525;49.398;7.614;2023-01-06T09:47:02;9.00;99.90
50570;DHT22;36525;49.398;7.614;2023-01-06T09:50:28;9.00;99.90
50570;DHT22;36525;49.398;7.614;2023-01-06T09:52:42;9.00;99.90
50570;DHT22;36525;49.398;7.614;2023-01-06T09:55:18;9.00;99.90
50570;DHT22;36525;49.398;7.614;2023-01-06T09:57:58;9.00;99.90
50570;DHT22;36525;49.398;7.614;2023-01-06T10:00:37;9.00;99.90
50570;DHT22;36525;49.398;7.614;2023-01-06T10:03:16;9.10;99.90
50570;DHT22;36525;49.398;7.614;2023-01-06T10:05:57;9.10;99.90
50570;DHT22;36525;49.398;7.614;2023-01-06T10:23:49;9.10;99.90
50570;DHT22;36525;49.398;7.614;2023-01-06T10:26:28;9.10;99.90
50570;DHT22;36525;49.398;7.614;2023-01-06T10:29:02;9.00;99.90
50570;DHT22;36525;49.398;7.614;2023-01-06T10:31:35;9.00;99.90
50570;DHT22;36525;49.398;7.614;2023-01-06T10:34:03;8.90;99.90
50570;DHT22;36525;49.398;7.614;2023-01-06T10:36:44;8.90;99.90
50570;DHT22;36525;49.398;7.614;2023-01-06T10:39:15;8.90;99.90
50570;DHT22;36525;49.398;7.614;2023-01-06T10:44:18;8.90;99.90
50570;DHT22;36525;49.398;7.614;2023-01-06T10:46:46;9.00;99.90
50570;DHT22;36525;49.398;7.614;2023-01-06T10:49:19;9.10;99.90
50570;DHT22;36525;49.398;7.614;2023-01-06T10:51:51;9.10;99.90
50570;DHT22;36525;49.398;7.614;2023-01-06T10:54:23;9.20;99.90
50570;DHT22;36525;49.398;7.614;2023-01-06T10:57:03;9.20;99.90
50570;DHT22;36525;49.398;7.614;2023-01-06T11:02:34;9.10;99.90
50570;DHT22;36525;49.398;7.614;2023-01-06T11:05:01;9.20;99.90
50570;DHT22;36525;49.398;7.614;2023-01-06T11:07:29;9.10;99.90
50570;DHT22;36525;49.398;7.614;2023-01-06T11:09:56;9.10;99.90
50570;DHT22;36525;49.398;7.614;2023-01-06T11:12:25;9.00;99.90
50570;DHT22;36525;49.398;7.614;2023-01-06T11:14:58;9.00;99.90
50570;DHT22;36525;49.398;7.614;2023-01-06T11:17:27;9.00;99.90
50570;DHT22;36525;49.398;7.614;2023-01-06T11:22:41;9.00;99.90
50570;DHT22;36525;49.398;7.614;2023-01-06T11:27:46;9.00;99.90
50570;DHT22;36525;49.398;7.614;2023-01-06T11:30:25;9.00;99.90
50570;DHT22;36525;49.398;7.614;2023-01-06T11:32:53;9.00;99.90
50570;DHT22;36525;49.398;7.614;2023-01-06T11:35:23;9.00;99.90
50570;DHT22;36525;49.398;7.614;2023-01-06T11:37:58;9.10;99.90
50570;DHT22;36525;49.398;7.614;2023-01-06T11:40:33;9.20;99.90
50570;DHT22;36525;49.398;7.614;2023-01-06T11:43:14;9.30;99.90
50570;DHT22;36525;49.398;7.614;2023-01-06T11:48:24;9.60;99.90
50570;DHT22;36525;49.398;7.614;2023-01-06T11:50:55;9.60;99.90
50570;DHT22;36525;49.398;7.614;2023-01-06T11:53:25;9.60;99.90
50570;DHT22;36525;49.398;7.614;2023-01-06T11:56:05;9.60;99.90
50570;DHT22;36525;49.398;7.614;2023-01-06T11:58:42;9.40;99.90
50570;DHT22;36525;49.398;7.614;2023-01-06T12:07:14;9.20;99.90
50570;DHT22;36525;49.398;7.614;2023-01-06T12:09:48;9.20;99.90
50570;DHT22;36525;49.398;7.614;2023-01-06T12:12:22;9.20;99.90
50570;DHT22;36525;49.398;7.614;2023-01-06T12:14:52;9.20;99.90
50570;DHT22;36525;49.398;7.614;2023-01-06T12:20:23;9.30;99.90
50570;DHT22;36525;49.398;7.614;2023-01-06T12:23:00;9.40;99.90
50570;DHT22;36525;49.398;7.614;2023-01-06T12:25:38;9.30;99.90
50570;DHT22;36525;49.398;7.614;2023-01-06T12:28:18;9.40;99.90
50570;DHT22;36525;49.398;7.614;2023-01-06T12:31:09;9.40;99.90
50570;DHT22;36525;49.398;7.614;2023-01-06T12:34:02;9.50;99.90
50570;DHT22;36525;49.398;7.614;2023-01-06T12:36:44;9.40;99.90
50570;DHT22;36525;49.398;7.614;2023-01-06T12:42:54;9.40;99.90
50570;DHT22;36525;49.398;7.614;2023-01-06T12:48:51;9.50;99.90
50570;DHT22;36525;49.398;7.614;2023-01-06T12:51:29;9.50;99.90
50570;DHT22;36525;49.398;7.614;2023-01-06T12:54:54;9.50;99.90
50570;DHT22;36525;49.398;7.614;2023-01-06T13:02:42;9.30;99.90
50570;DHT22;36525;49.398;7.614;2023-01-06T13:14:51;9.20;99.90
50570;DHT22;36525;49.398;7.614;2023-01-06T13:21:15;9.20;99.90
50570;DHT22;36525;49.398;7.614;2023-01-06T13:30:27;9.30;99.90
50570;DHT22;36525;49.398;7.614;2023-01-06T13:39:22;9.40;99.90
50570;DHT22;36525;49.398;7.614;2023-01-06T13:41:56;9.40;99.90
50570;DHT22;36525;49.398;7.614;2023-01-06T13:44:29;9.30;99.90
50570;DHT22;36525;49.398;7.614;2023-01-06T13:47:06;9.30;99.90
50570;DHT22;36525;49.398;7.614;2023-01-06T13:49:37;9.30;99.90
50570;DHT22;36525;49.398;7.614;2023-01-06T13:52:08;9.20;99.90
50570;DHT22;36525;49.398;7.614;2023-01-06T14:08:01;9.20;99.90
50570;DHT22;36525;49.398;7.614;2023-01-06T14:10:39;9.20;99.90
50570;DHT22;36525;49.398;7.614;2023-01-06T14:13:31;9.20;99.90
50570;DHT22;36525;49.398;7.614;2023-01-06T14:19:05;9.10;99.90
50570;DHT22;36525;49.398;7.614;2023-01-06T14:21:33;9.10;99.90
50570;DHT22;36525;49.398;7.614;2023-01-06T14:24:46;9.10;99.90
50570;DHT22;36525;49.398;7.614;2023-01-06T14:27:03;9.00;99.90
50570;DHT22;36525;49.398;7.614;2023-01-06T14:34:49;9.00;99.90
50570;DHT22;36525;49.398;7.614;2023-01-06T14:37:30;8.90;99.90
50570;DHT22;36525;49.398;7.614;2023-01-06T14:40:05;8.90;99.90
50570;DHT22;36525;49.398;7.614;2023-01-06T14:42:40;9.00;99.90
50570;DHT22;36525;49.398;7.614;2023-01-06T14:45:17;8.90;99.90
50570;DHT22;36525;49.398;7.614;2023-01-06T14:47:56;8.90;99.90
50570;DHT22;36525;49.398;7.614;2023-01-06T14:50:29;8.80;99.90
50570;DHT22;36525;49.398;7.614;2023-01-06T14:53:42;8.80;99.90
50570;DHT22;36525;49.398;7.614;2023-01-06T14:56:19;8.70;99.90
50570;DHT22;36525;49.398;7.614;2023-01-06T14:58:47;8.70;99.90
50570;DHT22;36525;49.398;7.614;2023-01-06T15:01:27;8.60;99.90
50570;DHT22;36525;49.398;7.614;2023-01-06T15:03:59;8.60;99.90
50570;DHT22;36525;49.398;7.614;2023-01-06T15:06:28;8.70;99.90
50570;DHT22;36525;49.398;7.614;2023-01-06T15:09:18;8.70;99.90
50570;DHT22;36525;49.398;7.614;2023-01-06T15:11:46;8.70;99.90
50570;DHT22;36525;49.398;7.614;2023-01-06T15:14:33;8.70;99.90
50570;DHT22;36525;49.398;7.614;2023-01-06T15:17:05;8.70;99.90
50570;DHT22;36525;49.398;7.614;2023-01-06T15:19:33;8.70;99.90
50570;DHT22;36525;49.398;7.614;2023-01-06T15:22:06;8.80;99.90
50570;DHT22;36525;49.398;7.614;2023-01-06T15:24:35;8.80;99.90
50570;DHT22;36525;49.398;7.614;2023-01-06T15:27:10;8.80;99.90
50570;DHT22;36525;49.398;7.614;2023-01-06T15:29:38;8.90;99.90
50570;DHT22;36525;49.398;7.614;2023-01-06T15:32:16;8.90;99.90
50570;DHT22;36525;49.398;7.614;2023-01-06T15:34:44;8.80;99.90
50570;DHT22;36525;49.398;7.614;2023-01-06T15:37:24;8.80;99.90
50570;DHT22;36525;49.398;7.614;2023-01-06T15:39:52;8.90;99.90
50570;DHT22;36525;49.398;7.614;2023-01-06T15:42:22;8.90;99.90
50570;DHT22;36525;49.398;7.614;2023-01-06T15:44:58;8.90;99.90
50570;DHT22;36525;49.398;7.614;2023-01-06T15:47:38;8.80;99.90
50570;DHT22;36525;49.398;7.614;2023-01-06T15:50:16;8.90;99.90
50570;DHT22;36525;49.398;7.614;2023-01-06T15:52:53;8.90;99.90
50570;DHT22;36525;49.398;7.614;2023-01-06T15:55:37;8.80;99.90
50570;DHT22;36525;49.398;7.614;2023-01-06T16:01:01;8.90;99.90
50570;DHT22;36525;49.398;7.614;2023-01-06T16:03:51;8.90;99.90
50570;DHT22;36525;49.398;7.614;2023-01-06T16:06:33;8.90;99.90
50570;DHT22;36525;49.398;7.614;2023-01-06T16:14:31;8.90;99.90
50570;DHT22;36525;49.398;7.614;2023-01-06T16:17:07;8.90;99.90
50570;DHT22;36525;49.398;7.614;2023-01-06T16:19:55;8.80;99.90
50570;DHT22;36525;49.398;7.614;2023-01-06T16:22:33;8.80;99.90
50570;DHT22;36525;49.398;7.614;2023-01-06T16:25:27;8.80;99.90
50570;DHT22;36525;49.398;7.614;2023-01-06T16:27:58;8.80;99.90
50570;DHT22;36525;49.398;7.614;2023-01-06T16:30:29;8.80;99.90
50570;DHT22;36525;49.398;7.614;2023-01-06T16:32:59;8.70;99.90
50570;DHT22;36525;49.398;7.614;2023-01-06T16:35:31;8.70;99.90
50570;DHT22;36525;49.398;7.614;2023-01-06T16:38:00;8.70;99.90
50570;DHT22;36525;49.398;7.614;2023-01-06T16:40:28;8.70;99.90
50570;DHT22;36525;49.398;7.614;2023-01-06T16:43:00;8.70;99.90
50570;DHT22;36525;49.398;7.614;2023-01-06T16:47:59;8.70;99.90
50570;DHT22;36525;49.398;7.614;2023-01-06T16:53:11;8.70;99.90
50570;DHT22;36525;49.398;7.614;2023-01-06T16:55:41;8.70;99.90
50570;DHT22;36525;49.398;7.614;2023-01-06T16:58:26;8.70;99.90
50570;DHT22;36525;49.398;7.614;2023-01-06T17:00:57;8.70;99.90
50570;DHT22;36525;49.398;7.614;2023-01-06T17:03:28;8.70;99.90
50570;DHT22;36525;49.398;7.614;2023-01-06T17:05:56;8.70;99.90
50570;DHT22;36525;49.398;7.614;2023-01-06T17:08:36;8.70;99.90
50570;DHT22;36525;49.398;7.614;2023-01-06T17:11:17;8.70;99.90
50570;DHT22;36525;49.398;7.614;2023-01-06T17:13:57;8.60;99.90
50570;DHT22;36525;49.398;7.614;2023-01-06T17:16:29;8.70;99.90
50570;DHT22;36525;49.398;7.614;2023-01-06T17:21:51;8.70;99.90
50570;DHT22;36525;49.398;7.614;2023-01-06T17:24:24;8.70;99.90
50570;DHT22;36525;49.398;7.614;2023-01-06T17:26:54;8.70;99.90
50570;DHT22;36525;49.398;7.614;2023-01-06T17:29:27;8.60;99.90
50570;DHT22;36525;49.398;7.614;2023-01-06T17:31:59;8.50;99.90
50570;DHT22;36525;49.398;7.614;2023-01-06T17:34:30;8.50;99.90
50570;DHT22;36525;49.398;7.614;2023-01-06T17:37:12;8.60;99.90
50570;DHT22;36525;49.398;7.614;2023-01-06T17:39:43;8.60;99.90
50570;DHT22;36525;49.398;7.614;2023-01-06T17:44:52;8.50;99.90
50570;DHT22;36525;49.398;7.614;2023-01-06T17:49:53;8.50;99.90
50570;DHT22;36525;49.398;7.614;2023-01-06T17:52:39;8.50;99.90
50570;DHT22;36525;49.398;7.614;2023-01-06T17:58:18;8.50;99.90
50570;DHT22;36525;49.398;7.614;2023-01-06T18:00:48;8.40;99.90
50570;DHT22;36525;49.398;7.614;2023-01-06T18:03:24;8.50;99.90
50570;DHT22;36525;49.398;7.614;2023-01-06T18:06:26;8.40;99.90
50570;DHT22;36525;49.398;7.614;2023-01-06T18:09:16;8.40;99.90
50570;DHT22;36525;49.398;7.614;2023-01-06T18:11:48;8.40;99.90
50570;DHT22;36525;49.398;7.614;2023-01-06T18:16:52;8.30;99.90
50570;DHT22;36525;49.398;7.614;2023-01-06T18:19:37;8.40;99.90
50570;DHT22;36525;49.398;7.614;2023-01-06T18:22:31;8.30;99.90
50570;DHT22;36525;49.398;7.614;2023-01-06T18:25:00;8.30;99.90
50570;DHT22;36525;49.398;7.614;2023-01-06T18:27:30;8.30;99.90
50570;DHT22;36525;49.398;7.614;2023-01-06T18:30:31;8.30;99.90
50570;DHT22;36525;49.398;7.614;2023-01-06T18:32:58;8.30;99.90
50570;DHT22;36525;49.398;7.614;2023-01-06T18:35:26;8.40;99.90
50570;DHT22;36525;49.398;7.614;2023-01-06T18:37:58;8.30;99.90
50570;DHT22;36525;49.398;7.614;2023-01-06T18:40:28;8.30;99.90
50570;DHT22;36525;49.398;7.614;2023-01-06T18:42:57;8.30;99.90
50570;DHT22;36525;49.398;7.614;2023-01-06T18:45:32;8.30;99.90
50570;DHT22;36525;49.398;7.614;2023-01-06T18:48:19;8.40;99.90
50570;DHT22;36525;49.398;7.614;2023-01-06T18:50:55;8.30;99.90
50570;DHT22;36525;49.398;7.614;2023-01-06T18:53:36;8.40;99.90
50570;DHT22;36525;49.398;7.614;2023-01-06T18:58:47;8.40;99.90
50570;DHT22;36525;49.398;7.614;2023-01-06T19:06:54;8.40;99.90
50570;DHT22;36525;49.398;7.614;2023-01-06T19:14:45;8.50;99.90
50570;DHT22;36525;49.398;7.614;2023-01-06T19:19:59;8.50;99.90
50570;DHT22;36525;49.398;7.614;2023-01-06T19:22:28;8.50;99.90
50570;DHT22;36525;49.398;7.614;2023-01-06T19:27:57;8.50;99.90
50570;DHT22;36525;49.398;7.614;2023-01-06T19:35:51;8.50;99.90
50570;DHT22;36525;49.398;7.614;2023-01-06T19:38:28;8.40;99.90
50570;DHT22;36525;49.398;7.614;2023-01-06T19:40:58;8.40;99.90
50570;DHT22;36525;49.398;7.614;2023-01-06T19:43:29;8.30;99.90